createdAt,value
2023-04-22T00:01:25.301Z,41.05
2023-04-22T00:03:52.215Z,45.78
2023-04-22T00:06:19.558Z,44.53
2023-04-22T00:08:46.405Z,43.92
2023-04-22T00:11:13.138Z,45.95
2023-04-22T00:13:39.678Z,47.70
2023-04-22T00:16:06.873Z,45.28
2023-04-22T00:18:36.535Z,41.65
2023-04-22T00:21:04.357Z,40.28
2023-04-22T00:23:31.653Z,41.20
2023-04-22T00:25:58.624Z,42.00
2023-04-22T00:28:25.464Z,40.63
2023-04-22T00:30:52.219Z,44.65
2023-04-22T00:33:19.175Z,41.47
2023-04-22T00:35:49.071Z,47.88
2023-04-22T00:38:15.770Z,41.97
2023-04-22T00:40:42.507Z,43.67
2023-04-22T00:43:09.750Z,45.03
2023-04-22T00:45:37.591Z,42.78
2023-04-22T00:48:04.870Z,39.83
2023-04-22T00:50:31.728Z,43.67
2023-04-22T00:52:58.701Z,49.88
2023-04-22T00:55:25.732Z,49.22
2023-04-22T00:57:54.937Z,42.10
2023-04-22T01:00:27.448Z,42.05
2023-04-22T01:02:55.315Z,48.38
2023-04-22T01:05:22.413Z,42.70
2023-04-22T01:07:49.309Z,41.65
2023-04-22T01:10:16.068Z,44.88
2023-04-22T01:12:42.808Z,42.47
2023-04-22T01:15:09.765Z,49.15
2023-04-22T01:17:36.563Z,43.45
2023-04-22T01:20:06.125Z,41.28
2023-04-22T01:22:37.128Z,37.92
2023-04-22T01:25:04.148Z,45.58
2023-04-22T01:27:31.113Z,45.90
2023-04-22T01:29:57.950Z,42.88
2023-04-22T01:32:25.125Z,46.35
2023-04-22T01:34:51.969Z,47.13
2023-04-22T01:37:18.683Z,46.22
2023-04-22T01:39:46.636Z,58.05
2023-04-22T01:42:14.085Z,50.30
2023-04-22T01:44:41.010Z,45.17
2023-04-22T01:47:08.142Z,46.22
2023-04-22T01:49:34.735Z,49.08
2023-04-22T01:52:01.588Z,43.45
2023-04-22T01:54:28.417Z,49.65
2023-04-22T01:56:55.912Z,46.90
2023-04-22T01:59:22.492Z,49.97
2023-04-22T02:01:49.089Z,50.90
2023-04-22T02:04:15.915Z,53.95
2023-04-22T02:06:42.553Z,48.30
2023-04-22T02:09:09.242Z,53.30
2023-04-22T02:11:35.928Z,42.78
2023-04-22T02:14:02.549Z,52.90
2023-04-22T02:16:29.306Z,44.15
2023-04-22T02:18:55.918Z,48.50
2023-04-22T02:21:22.569Z,48.95
2023-04-22T02:23:49.240Z,48.50
2023-04-22T02:26:15.863Z,55.28
2023-04-22T02:28:42.873Z,53.20
2023-04-22T02:31:09.515Z,47.67
2023-04-22T02:33:36.507Z,47.05
2023-04-22T02:36:03.180Z,47.40
2023-04-22T02:38:29.825Z,52.83
2023-04-22T02:40:56.458Z,48.55
2023-04-22T02:43:23.189Z,52.88
2023-04-22T02:45:49.914Z,53.15
2023-04-22T02:48:16.527Z,50.15
2023-04-22T02:50:43.238Z,50.08
2023-04-22T02:53:09.924Z,49.03
2023-04-22T02:55:36.736Z,46.97
2023-04-22T02:58:03.371Z,41.15
2023-04-22T03:00:30.006Z,46.65
2023-04-22T03:02:56.820Z,51.83
2023-04-22T03:05:23.623Z,49.65
2023-04-22T03:07:50.399Z,55.92
2023-04-22T03:10:16.986Z,56.40
2023-04-22T03:12:43.620Z,59.17
2023-04-22T03:15:10.689Z,56.80
2023-04-22T03:17:37.292Z,57.78
2023-04-22T03:20:04.422Z,54.40
2023-04-22T03:22:31.066Z,52.28
2023-04-22T03:24:57.774Z,53.63
2023-04-22T03:27:24.397Z,58.10
2023-04-22T03:29:51.020Z,60.10
2023-04-22T03:32:17.712Z,57.17
2023-04-22T03:34:44.362Z,52.70
2023-04-22T03:37:11.015Z,53.13
2023-04-22T03:39:37.966Z,49.88
2023-04-22T03:42:04.795Z,48.60
2023-04-22T03:44:31.526Z,53.90
2023-04-22T03:46:58.151Z,52.67
2023-04-22T03:49:25.347Z,54.42
2023-04-22T03:51:51.918Z,49.70
2023-04-22T03:54:19.127Z,50.25
2023-04-22T03:56:45.661Z,51.75
2023-04-22T03:59:12.216Z,52.53
2023-04-22T04:01:38.736Z,52.90
2023-04-22T04:04:06.101Z,58.55
2023-04-22T04:06:33.558Z,48.60
2023-04-22T04:09:01.642Z,53.70
2023-04-22T04:11:28.312Z,54.25
2023-04-22T04:13:55.053Z,49.55
2023-04-22T04:16:21.883Z,52.85
2023-04-22T04:18:52.277Z,49.22
2023-04-22T04:21:19.049Z,53.15
2023-04-22T04:23:47.385Z,53.20
2023-04-22T04:26:15.284Z,55.25
2023-04-22T04:28:42.306Z,52.10
2023-04-22T04:31:08.964Z,53.50
2023-04-22T04:33:37.078Z,47.88
2023-04-22T04:36:04.323Z,58.28
2023-04-22T04:38:31.352Z,59.35
2023-04-22T04:40:58.203Z,55.70
2023-04-22T04:43:26.352Z,53.97
2023-04-22T04:45:53.459Z,50.50
2023-04-22T04:48:20.192Z,48.05
2023-04-22T04:50:47.223Z,47.13
2023-04-22T04:53:13.910Z,47.35
2023-04-22T04:55:40.614Z,47.35
2023-04-22T04:58:07.259Z,50.00
2023-04-22T05:00:34.014Z,53.05
2023-04-22T05:03:00.799Z,48.70
2023-04-22T05:05:29.300Z,50.05
2023-04-22T05:07:56.909Z,48.08
2023-04-22T05:10:23.590Z,51.42
2023-04-22T05:12:51.194Z,47.60
2023-04-22T05:15:17.963Z,43.63
2023-04-22T05:17:44.598Z,43.05
2023-04-22T05:20:11.623Z,49.72
2023-04-22T05:22:38.376Z,43.80
2023-04-22T05:25:05.342Z,47.33
2023-04-22T05:27:32.463Z,47.40
2023-04-22T05:29:59.245Z,45.92
2023-04-22T05:32:25.821Z,47.78
2023-04-22T05:34:52.595Z,43.15
2023-04-22T05:37:19.276Z,44.40
2023-04-22T05:39:46.207Z,38.40
2023-04-22T05:42:12.954Z,45.10
2023-04-22T05:44:39.736Z,47.10
2023-04-22T05:47:06.551Z,39.00
2023-04-22T05:49:33.396Z,48.53
2023-04-22T05:52:00.065Z,45.83
2023-04-22T05:54:27.185Z,39.70
2023-04-22T05:56:53.980Z,40.13
2023-04-22T05:59:21.795Z,43.45
2023-04-22T06:01:48.544Z,34.03
2023-04-22T06:04:15.387Z,40.97
2023-04-22T06:06:42.202Z,39.75
2023-04-22T06:09:09.263Z,40.17
2023-04-22T06:11:36.037Z,37.65
2023-04-22T06:14:02.599Z,47.37
2023-04-22T06:16:29.880Z,41.40
2023-04-22T06:18:56.565Z,39.08
2023-04-22T06:21:23.457Z,42.45
2023-04-22T06:23:50.077Z,38.10
2023-04-22T06:26:16.815Z,36.55
2023-04-22T06:28:43.375Z,33.15
2023-04-22T06:31:10.198Z,36.55
2023-04-22T06:33:37.067Z,34.63
2023-04-22T06:36:05.252Z,35.47
2023-04-22T06:38:32.016Z,36.50
2023-04-22T06:40:58.623Z,34.25
2023-04-22T06:43:25.345Z,33.13
2023-04-22T06:45:51.917Z,35.58
2023-04-22T06:48:18.536Z,31.48
2023-04-22T06:50:45.213Z,32.60
2023-04-22T06:53:11.787Z,31.60
2023-04-22T06:55:38.483Z,31.52
2023-04-22T06:58:05.226Z,32.92
2023-04-22T07:00:31.897Z,31.05
2023-04-22T07:02:58.565Z,29.43
2023-04-22T07:05:25.314Z,27.70
2023-04-22T07:07:52.135Z,24.65
2023-04-22T07:10:19.177Z,20.77
2023-04-22T07:12:45.920Z,23.58
2023-04-22T07:15:12.528Z,23.60
2023-04-22T07:17:39.413Z,23.05
2023-04-22T07:20:06.690Z,22.63
2023-04-22T07:22:33.318Z,24.95
2023-04-22T07:25:00.025Z,23.48
2023-04-22T07:27:26.575Z,23.80
2023-04-22T07:29:53.117Z,26.35
2023-04-22T07:32:19.855Z,23.83
2023-04-22T07:34:46.494Z,21.88
2023-04-22T07:37:13.193Z,23.10
2023-04-22T07:39:40.899Z,24.33
2023-04-22T07:42:07.594Z,24.10
2023-04-22T07:44:34.169Z,24.33
2023-04-22T07:47:00.930Z,20.35
2023-04-22T07:49:27.685Z,21.63
2023-04-22T07:51:54.287Z,22.47
2023-04-22T07:54:20.985Z,24.27
2023-04-22T07:56:47.620Z,22.88
2023-04-22T07:59:14.199Z,24.65
2023-04-22T08:01:41.812Z,20.00
2023-04-22T08:04:08.867Z,24.23
2023-04-22T08:06:35.750Z,22.70
2023-04-22T08:09:02.344Z,20.38
2023-04-22T08:11:30.422Z,21.63
2023-04-22T08:13:57.208Z,18.38
2023-04-22T08:16:23.917Z,20.70
2023-04-22T08:18:52.294Z,19.35
2023-04-22T08:21:18.942Z,18.48
2023-04-22T08:23:45.560Z,18.05
2023-04-22T08:26:15.200Z,15.38
2023-04-22T08:28:42.554Z,17.43
2023-04-22T08:31:13.134Z,14.90
2023-04-22T08:33:41.325Z,18.75
2023-04-22T08:36:09.629Z,14.80
2023-04-22T08:38:36.266Z,16.13
2023-04-22T08:41:06.264Z,19.03
2023-04-22T08:43:34.159Z,16.23
2023-04-22T08:46:02.109Z,15.23
2023-04-22T08:48:28.955Z,13.85
2023-04-22T08:50:55.731Z,16.63
2023-04-22T08:53:24.449Z,16.07
2023-04-22T08:55:51.947Z,13.45
2023-04-22T08:58:18.890Z,24.08
2023-04-22T09:00:45.877Z,15.30
2023-04-22T09:03:12.919Z,14.07
2023-04-22T09:05:41.008Z,17.03
2023-04-22T09:08:08.206Z,13.75
2023-04-22T09:10:38.658Z,14.32
2023-04-22T09:13:07.036Z,13.02
2023-04-22T09:15:34.257Z,15.10
2023-04-22T09:18:03.522Z,13.10
2023-04-22T09:20:30.765Z,18.23
2023-04-22T09:23:04.079Z,13.23
2023-04-22T09:25:34.193Z,13.52
2023-04-22T09:28:00.947Z,13.23
2023-04-22T09:30:37.981Z,13.33
2023-04-22T09:33:07.025Z,15.77
2023-04-22T09:35:36.850Z,14.35
2023-04-22T09:38:08.418Z,16.65
2023-04-22T09:40:36.382Z,15.30
2023-04-22T09:43:05.996Z,15.40
2023-04-22T09:45:41.234Z,14.32
2023-04-22T09:48:12.127Z,14.05
2023-04-22T09:50:43.295Z,16.92
2023-04-22T09:53:12.456Z,19.75
2023-04-22T09:55:42.272Z,17.07
2023-04-22T09:58:14.885Z,14.95
2023-04-22T10:00:44.936Z,17.67
2023-04-22T10:03:11.938Z,16.05
2023-04-22T10:05:39.402Z,20.88
2023-04-22T10:08:06.699Z,17.77
2023-04-22T10:10:34.151Z,17.27
2023-04-22T10:13:04.281Z,17.63
2023-04-22T10:15:38.585Z,19.90
2023-04-22T10:18:08.784Z,16.00
2023-04-22T10:20:38.300Z,16.80
2023-04-22T10:23:06.662Z,21.73
2023-04-22T10:25:33.571Z,15.95
2023-04-22T10:28:10.962Z,16.45
2023-04-22T10:30:39.655Z,22.48
2023-04-22T10:33:21.806Z,19.47
2023-04-22T10:36:09.806Z,18.85
2023-04-22T10:38:42.155Z,17.75
2023-04-22T10:41:15.508Z,20.25
2023-04-22T10:43:46.880Z,20.30
2023-04-22T10:46:37.123Z,27.27
2023-04-22T10:49:11.323Z,24.05
2023-04-22T10:51:45.148Z,23.73
2023-04-22T10:54:36.691Z,24.10
2023-04-22T10:57:11.305Z,25.10
2023-04-22T10:59:50.110Z,23.47
2023-04-22T11:02:18.381Z,25.98
2023-04-22T11:04:45.701Z,27.75
2023-04-22T11:07:22.919Z,26.48
2023-04-22T11:10:01.593Z,29.23
2023-04-22T11:12:39.925Z,29.73
2023-04-22T11:15:09.470Z,29.55
2023-04-22T11:17:37.233Z,27.00
2023-04-22T11:20:07.292Z,24.15
2023-04-22T11:22:38.969Z,30.00
2023-04-22T11:25:06.688Z,31.43
2023-04-22T11:27:33.356Z,29.05
2023-04-22T11:30:00.848Z,29.52
2023-04-22T11:32:28.614Z,28.75
2023-04-22T11:34:56.165Z,27.48
2023-04-22T11:37:23.450Z,33.57
2023-04-22T11:40:16.853Z,32.63
2023-04-22T11:42:40.442Z,34.30
2023-04-22T11:45:09.488Z,36.50
2023-04-22T11:47:36.627Z,36.15
2023-04-22T11:50:11.262Z,33.07
2023-04-22T11:52:48.344Z,36.55
2023-04-22T11:55:15.812Z,37.70
2023-04-22T11:57:43.542Z,34.80
2023-04-22T12:00:15.119Z,33.90
2023-04-22T12:02:42.338Z,36.23
2023-04-22T12:05:15.369Z,33.63
2023-04-22T12:07:43.316Z,35.60
2023-04-22T12:10:11.197Z,40.67
2023-04-22T12:12:40.321Z,34.33
2023-04-22T12:15:13.817Z,35.03
2023-04-22T12:17:40.964Z,38.13
2023-04-22T12:20:13.093Z,42.60
2023-04-22T12:22:39.771Z,37.92
2023-04-22T12:25:06.804Z,43.08
2023-04-22T12:27:33.622Z,35.20
2023-04-22T12:30:00.503Z,38.30
2023-04-22T12:32:27.595Z,43.67
2023-04-22T12:34:54.363Z,46.03
2023-04-22T12:37:21.021Z,45.42
2023-04-22T12:39:47.808Z,46.83
2023-04-22T12:42:14.606Z,44.25
2023-04-22T12:44:41.548Z,43.40
2023-04-22T12:47:10.032Z,45.10
2023-04-22T12:49:38.374Z,47.88
2023-04-22T12:52:05.533Z,46.03
2023-04-22T12:54:32.258Z,45.58
2023-04-22T12:56:58.947Z,52.03
2023-04-22T12:59:25.627Z,52.15
2023-04-22T13:01:52.305Z,46.53
2023-04-22T13:04:20.243Z,47.33
2023-04-22T13:06:47.024Z,50.83
2023-04-22T13:09:13.749Z,49.28
2023-04-22T13:11:40.409Z,42.72
2023-04-22T13:14:06.988Z,46.72
2023-04-22T13:16:33.613Z,54.80
2023-04-22T13:19:00.530Z,48.78
2023-04-22T13:21:28.299Z,47.03
2023-04-22T13:23:54.981Z,53.08
2023-04-22T13:26:22.483Z,49.17
2023-04-22T13:28:49.103Z,44.00
2023-04-22T13:31:16.321Z,40.92
2023-04-22T13:33:44.228Z,39.58
2023-04-22T13:36:11.285Z,39.33
2023-04-22T13:38:37.903Z,43.28
2023-04-22T13:41:04.863Z,44.20
2023-04-22T13:43:31.776Z,47.67
2023-04-22T13:45:58.392Z,43.53
2023-04-22T13:48:25.245Z,43.45
2023-04-22T13:50:51.938Z,44.28
2023-04-22T13:53:18.865Z,46.47
2023-04-22T13:55:45.579Z,45.25
2023-04-22T13:58:12.442Z,45.55
2023-04-22T14:00:39.183Z,46.05
2023-04-22T14:03:06.201Z,44.92
2023-04-22T14:05:33.034Z,44.93
2023-04-22T14:07:59.906Z,44.75
2023-04-22T14:10:28.516Z,50.17
2023-04-22T14:12:55.276Z,45.92
2023-04-22T14:15:22.015Z,49.92
2023-04-22T14:17:49.735Z,49.53
2023-04-22T14:20:16.982Z,52.17
2023-04-22T14:22:43.634Z,44.58
2023-04-22T14:25:10.588Z,47.35
2023-04-22T14:27:37.372Z,46.88
2023-04-22T14:30:06.344Z,41.77
2023-04-22T14:32:33.164Z,46.47
2023-04-22T14:35:00.044Z,49.47
2023-04-22T14:37:26.908Z,45.08
2023-04-22T14:39:53.785Z,43.40
2023-04-22T14:42:20.769Z,42.00
2023-04-22T14:44:47.505Z,37.70
2023-04-22T14:47:14.128Z,46.13
2023-04-22T14:49:41.133Z,37.60
2023-04-22T14:52:07.960Z,49.33
2023-04-22T14:54:34.624Z,33.40
2023-04-22T14:57:01.709Z,33.97
2023-04-22T14:59:28.639Z,33.35
2023-04-22T15:01:55.480Z,35.42
2023-04-22T15:04:22.423Z,38.90
2023-04-22T15:06:49.120Z,42.07
2023-04-22T15:09:15.767Z,45.05
2023-04-22T15:11:42.358Z,52.05
2023-04-22T15:14:08.950Z,51.78
2023-04-22T15:16:36.370Z,50.05
2023-04-22T15:19:03.094Z,42.43
2023-04-22T15:21:29.695Z,51.30
2023-04-22T15:23:56.327Z,43.90
2023-04-22T15:26:23.029Z,42.67
2023-04-22T15:28:50.949Z,39.80
2023-04-22T15:31:21.004Z,43.57
2023-04-22T15:33:47.682Z,57.58
2023-04-22T15:36:18.248Z,49.03
2023-04-22T15:38:44.961Z,44.67
2023-04-22T15:41:11.886Z,43.05
2023-04-22T15:43:38.746Z,43.00
2023-04-22T15:46:05.745Z,42.45
2023-04-22T15:48:32.415Z,49.67
2023-04-22T15:50:59.066Z,41.47
2023-04-22T15:53:25.691Z,48.00
2023-04-22T15:55:52.266Z,38.93
2023-04-22T15:58:19.010Z,36.47
2023-04-22T16:00:45.895Z,41.92
2023-04-22T16:03:13.232Z,36.95
2023-04-22T16:05:39.962Z,38.20
2023-04-22T16:08:06.877Z,34.77
2023-04-22T16:10:33.623Z,40.80
2023-04-22T16:13:00.267Z,32.92
2023-04-22T16:15:27.067Z,35.95
2023-04-22T16:17:53.724Z,34.10
2023-04-22T16:20:20.477Z,35.20
2023-04-22T16:22:47.288Z,36.47
2023-04-22T16:25:14.166Z,37.70
2023-04-22T16:27:41.085Z,34.13
2023-04-22T16:30:08.221Z,29.25
2023-04-22T16:32:34.815Z,32.87
2023-04-22T16:35:01.816Z,35.65
2023-04-22T16:37:28.551Z,35.10
2023-04-22T16:39:55.423Z,33.92
2023-04-22T16:42:22.074Z,30.27
2023-04-22T16:44:48.659Z,30.83
2023-04-22T16:47:15.243Z,33.22
2023-04-22T16:49:42.208Z,33.70
2023-04-22T16:52:09.229Z,34.53
2023-04-22T16:54:35.902Z,33.67
2023-04-22T16:57:02.826Z,35.47
2023-04-22T16:59:29.936Z,38.20
2023-04-22T17:01:56.861Z,41.35
2023-04-22T17:04:23.842Z,43.92
2023-04-22T17:06:50.618Z,36.47
2023-04-22T17:09:17.325Z,36.40
2023-04-22T17:11:44.480Z,41.47
2023-04-22T17:14:11.238Z,41.28
2023-04-22T17:16:37.865Z,38.28
2023-04-22T17:19:04.480Z,43.53
2023-04-22T17:21:31.299Z,40.20
2023-04-22T17:23:59.436Z,38.70
2023-04-22T17:26:26.137Z,41.70
2023-04-22T17:28:52.751Z,42.45
2023-04-22T17:31:19.460Z,38.20
2023-04-22T17:33:46.039Z,43.40
2023-04-22T17:36:12.636Z,46.13
2023-04-22T17:38:41.002Z,44.45
2023-04-22T17:41:07.959Z,43.08
2023-04-22T17:43:34.584Z,48.88
2023-04-22T17:46:01.260Z,48.00
2023-04-22T17:48:27.914Z,48.80
2023-04-22T17:50:54.672Z,52.30
2023-04-22T17:53:21.380Z,46.30
2023-04-22T17:55:48.078Z,44.55
2023-04-22T17:58:14.676Z,46.03
2023-04-22T18:00:41.356Z,53.42
2023-04-22T18:03:08.346Z,51.05
2023-04-22T18:05:35.249Z,51.38
2023-04-22T18:08:02.989Z,53.85
2023-04-22T18:10:30.437Z,55.20
2023-04-22T18:12:57.176Z,52.00
2023-04-22T18:15:24.072Z,48.25
2023-04-22T18:17:51.163Z,54.78
2023-04-22T18:20:19.974Z,56.33
2023-04-22T18:22:49.061Z,62.60
2023-04-22T18:25:16.429Z,59.95
2023-04-22T18:27:43.483Z,56.95
2023-04-22T18:30:10.306Z,55.72
2023-04-22T18:32:37.463Z,57.13
2023-04-22T18:35:04.868Z,56.43
2023-04-22T18:37:32.914Z,63.15
2023-04-22T18:39:59.678Z,65.25
2023-04-22T18:42:26.525Z,70.43
2023-04-22T18:44:53.116Z,67.43
2023-04-22T18:47:19.867Z,55.67
2023-04-22T18:49:46.481Z,56.83
2023-04-22T18:52:13.632Z,61.13
2023-04-22T18:54:41.028Z,60.22
2023-04-22T18:57:07.930Z,67.40
2023-04-22T18:59:34.644Z,64.37
2023-04-22T19:02:01.414Z,69.38
2023-04-22T19:04:28.102Z,67.85
2023-04-22T19:06:57.073Z,61.58
2023-04-22T19:09:24.080Z,64.53
2023-04-22T19:11:50.907Z,68.37
2023-04-22T19:14:17.653Z,62.22
2023-04-22T19:16:44.446Z,69.40
2023-04-22T19:19:12.196Z,71.15
2023-04-22T19:21:39.594Z,67.80
2023-04-22T19:24:06.811Z,71.37
2023-04-22T19:26:34.201Z,65.05
2023-04-22T19:29:01.164Z,70.28
2023-04-22T19:31:28.608Z,70.85
2023-04-22T19:33:56.768Z,70.63
2023-04-22T19:36:23.419Z,76.03
2023-04-22T19:38:50.271Z,81.65
2023-04-22T19:41:16.965Z,69.10
2023-04-22T19:43:43.734Z,68.15
2023-04-22T19:46:10.450Z,88.00
2023-04-22T19:48:37.499Z,79.93
2023-04-22T19:51:05.566Z,76.72
2023-04-22T19:53:33.211Z,81.47
2023-04-22T19:56:00.010Z,80.00
2023-04-22T19:58:28.329Z,73.25
2023-04-22T20:00:55.594Z,77.53
2023-04-22T20:03:22.801Z,67.70
2023-04-22T20:05:50.478Z,75.40
2023-04-22T20:08:19.657Z,76.50
2023-04-22T20:10:49.509Z,73.82
2023-04-22T20:13:17.145Z,81.77
2023-04-22T20:15:44.436Z,91.60
2023-04-22T20:18:11.572Z,87.43
2023-04-22T20:20:45.767Z,90.72
2023-04-22T20:23:14.614Z,82.78
2023-04-22T20:25:47.078Z,83.07
2023-04-22T20:28:14.177Z,93.15
2023-04-22T20:30:41.107Z,100.03
2023-04-22T20:33:08.033Z,97.47
2023-04-22T20:35:35.978Z,98.35
2023-04-22T20:38:03.616Z,101.67
2023-04-22T20:40:31.080Z,96.53
2023-04-22T20:43:01.196Z,105.25
2023-04-22T20:45:28.651Z,105.85
2023-04-22T20:47:56.244Z,104.65
2023-04-22T20:50:22.856Z,115.07
2023-04-22T20:52:52.161Z,110.10
2023-04-22T20:55:18.859Z,111.18
2023-04-22T20:57:45.573Z,109.45
2023-04-22T21:00:12.653Z,109.53
2023-04-22T21:02:40.232Z,126.63
2023-04-22T21:05:07.662Z,123.25
2023-04-22T21:07:38.673Z,110.07
2023-04-22T21:10:06.352Z,111.00
2023-04-22T21:12:33.557Z,120.30
2023-04-22T21:15:00.677Z,125.47
2023-04-22T21:17:31.655Z,118.68
2023-04-22T21:19:58.709Z,117.93
2023-04-22T21:22:26.049Z,118.95
2023-04-22T21:24:53.682Z,116.90
2023-04-22T21:27:22.225Z,118.72
2023-04-22T21:29:50.129Z,117.82
2023-04-22T21:32:17.393Z,118.57
2023-04-22T21:34:44.814Z,108.97
2023-04-22T21:37:12.520Z,118.00
2023-04-22T21:39:40.073Z,109.10
2023-04-22T21:42:08.393Z,101.85
2023-04-22T21:44:38.070Z,129.88
2023-04-22T21:47:05.518Z,110.25
2023-04-22T21:49:32.113Z,97.38
2023-04-22T21:51:59.527Z,101.45
2023-04-22T21:54:26.400Z,112.22
2023-04-22T21:56:53.256Z,99.50
2023-04-22T21:59:19.943Z,91.03
2023-04-22T22:01:46.770Z,112.55
2023-04-22T22:04:16.227Z,92.32
2023-04-22T22:06:44.208Z,96.18
2023-04-22T22:09:11.881Z,91.28
2023-04-22T22:11:38.561Z,102.57
2023-04-22T22:14:05.322Z,90.85
2023-04-22T22:16:32.156Z,92.22
2023-04-22T22:18:58.835Z,99.70
2023-04-22T22:21:25.555Z,89.88
2023-04-22T22:23:52.324Z,82.57
2023-04-22T22:26:19.548Z,86.55
2023-04-22T22:28:46.276Z,87.67
2023-04-22T22:31:12.912Z,92.03
2023-04-22T22:33:39.768Z,90.80
2023-04-22T22:36:06.659Z,82.47
2023-04-22T22:38:33.249Z,93.00
2023-04-22T22:40:59.942Z,92.63
2023-04-22T22:43:27.005Z,91.70
2023-04-22T22:45:54.250Z,89.70
2023-04-22T22:48:21.073Z,92.18
2023-04-22T22:50:49.026Z,95.00
2023-04-22T22:53:15.971Z,90.90
2023-04-22T22:55:42.696Z,94.43
2023-04-22T22:58:09.258Z,97.93
2023-04-22T23:00:36.861Z,84.25
2023-04-22T23:03:04.094Z,89.88
2023-04-22T23:05:31.288Z,92.18
2023-04-22T23:07:57.947Z,89.97
2023-04-22T23:10:24.600Z,92.50
2023-04-22T23:12:51.350Z,101.20
2023-04-22T23:15:18.258Z,84.55
2023-04-22T23:17:45.240Z,88.53
2023-04-22T23:20:12.412Z,87.50
2023-04-22T23:22:40.541Z,86.93
2023-04-22T23:25:08.645Z,82.45
2023-04-22T23:27:35.910Z,80.38
2023-04-22T23:30:04.667Z,79.63
2023-04-22T23:32:33.202Z,90.38
2023-04-22T23:35:01.820Z,81.88
2023-04-22T23:37:29.721Z,79.10
2023-04-22T23:39:56.606Z,82.63
2023-04-22T23:42:23.207Z,75.70
2023-04-22T23:44:49.842Z,85.35
2023-04-22T23:47:16.944Z,81.10
2023-04-22T23:49:43.753Z,69.82
2023-04-22T23:52:13.043Z,82.55
2023-04-22T23:54:40.893Z,80.13
2023-04-22T23:57:08.149Z,77.43
2023-04-22T23:59:34.990Z,76.03
